createdAt,value
2023-02-18T00:00:34.257Z,100.00
2023-02-18T00:03:19.401Z,100.00
2023-02-18T00:05:46.626Z,100.00
2023-02-18T00:08:16.023Z,100.00
2023-02-18T00:10:43.642Z,100.00
2023-02-18T00:13:10.808Z,100.00
2023-02-18T00:15:38.227Z,100.00
2023-02-18T00:18:05.795Z,100.00
2023-02-18T00:20:36.332Z,100.00
2023-02-18T00:23:03.584Z,100.00
2023-02-18T00:25:30.839Z,100.00
2023-02-18T00:27:59.995Z,100.00
2023-02-18T00:30:28.635Z,100.00
2023-02-18T00:32:55.939Z,100.00
2023-02-18T00:35:23.149Z,100.00
2023-02-18T00:37:51.425Z,100.00
2023-02-18T00:40:21.607Z,100.00
2023-02-18T00:42:48.546Z,100.00
2023-02-18T00:45:15.961Z,100.00
2023-02-18T00:47:42.867Z,100.00
2023-02-18T00:50:10.632Z,100.00
2023-02-18T00:52:37.537Z,100.00
2023-02-18T00:55:04.861Z,100.00
2023-02-18T00:57:33.323Z,100.00
2023-02-18T01:00:06.280Z,100.00
2023-02-18T01:02:33.261Z,100.00
2023-02-18T01:05:00.560Z,100.00
2023-02-18T01:07:27.678Z,100.00
2023-02-18T01:09:55.205Z,100.00
2023-02-18T01:12:22.281Z,100.00
2023-02-18T01:14:51.876Z,100.00
2023-02-18T01:17:18.797Z,100.00
2023-02-18T01:19:46.276Z,100.00
2023-02-18T01:22:15.790Z,100.00
2023-02-18T01:24:44.049Z,100.00
2023-02-18T01:27:12.593Z,100.00
2023-02-18T01:29:41.868Z,100.00
2023-02-18T01:32:08.881Z,100.00
2023-02-18T01:34:36.176Z,100.00
2023-02-18T01:37:03.345Z,100.00
2023-02-18T01:39:30.661Z,100.00
2023-02-18T01:41:57.616Z,100.00
2023-02-18T01:44:28.919Z,100.00
2023-02-18T01:46:55.873Z,100.00
2023-02-18T01:49:30.719Z,100.00
2023-02-18T01:52:02.408Z,100.00
2023-02-18T01:54:50.309Z,100.00
2023-02-18T01:57:21.813Z,100.00
2023-02-18T01:59:49.972Z,100.00
2023-02-18T02:02:19.367Z,100.00
2023-02-18T02:04:46.863Z,100.00
2023-02-18T02:07:14.261Z,100.00
2023-02-18T02:09:42.399Z,100.00
2023-02-18T02:12:17.851Z,100.00
2023-02-18T02:14:45.361Z,100.00
2023-02-18T02:17:18.477Z,100.00
2023-02-18T02:19:47.073Z,100.00
2023-02-18T02:22:17.070Z,100.00
2023-02-18T02:24:44.474Z,100.00
2023-02-18T02:27:20.339Z,100.00
2023-02-18T02:29:49.613Z,100.00
2023-02-18T02:32:47.611Z,100.00
2023-02-18T02:35:28.095Z,100.00
2023-02-18T02:38:03.989Z,100.00
2023-02-18T02:40:34.553Z,100.00
2023-02-18T02:43:07.486Z,100.00
2023-02-18T02:45:40.976Z,100.00
2023-02-18T02:48:13.430Z,100.00
2023-02-18T02:50:52.077Z,100.00
2023-02-18T02:53:22.339Z,100.00
2023-02-18T02:55:49.658Z,100.00
2023-02-18T02:58:19.606Z,100.00
2023-02-18T03:00:57.499Z,100.00
2023-02-18T03:03:33.405Z,100.00
2023-02-18T03:06:19.415Z,100.00
2023-02-18T03:09:05.303Z,100.00
2023-02-18T03:11:40.583Z,100.00
2023-02-18T03:14:13.409Z,100.00
2023-02-18T03:16:57.724Z,100.00
2023-02-18T03:19:29.748Z,100.00
2023-02-18T03:22:06.669Z,100.00
2023-02-18T03:24:40.131Z,100.00
2023-02-18T03:27:10.271Z,100.00
2023-02-18T03:29:37.528Z,100.00
2023-02-18T03:32:06.871Z,100.00
2023-02-18T03:34:36.689Z,100.00
2023-02-18T03:37:03.986Z,100.00
2023-02-18T03:39:32.540Z,100.00
2023-02-18T03:42:00.016Z,100.00
2023-02-18T03:44:26.884Z,100.00
2023-02-18T03:46:54.565Z,100.00
2023-02-18T03:49:21.639Z,100.00
2023-02-18T03:51:48.837Z,100.00
2023-02-18T03:54:15.830Z,100.00
2023-02-18T03:56:43.541Z,100.00
2023-02-18T03:59:11.655Z,100.00
2023-02-18T04:01:39.154Z,100.00
2023-02-18T04:04:06.118Z,100.00
2023-02-18T04:06:33.367Z,100.00
2023-02-18T04:09:00.487Z,100.00
2023-02-18T04:11:27.608Z,100.00
2023-02-18T04:13:54.447Z,100.00
2023-02-18T04:16:21.701Z,100.00
2023-02-18T04:18:48.557Z,100.00
2023-02-18T04:21:15.740Z,100.00
2023-02-18T04:23:42.702Z,100.00
2023-02-18T04:26:10.425Z,100.00
2023-02-18T04:28:37.651Z,100.00
2023-02-18T04:31:04.991Z,100.00
2023-02-18T04:33:32.042Z,100.00
2023-02-18T04:35:59.521Z,100.00
2023-02-18T04:38:26.427Z,100.00
2023-02-18T04:40:56.030Z,100.00
2023-02-18T04:43:22.890Z,100.00
2023-02-18T04:45:50.477Z,100.00
2023-02-18T04:48:17.441Z,100.00
2023-02-18T04:50:45.047Z,100.00
2023-02-18T04:53:11.878Z,100.00
2023-02-18T04:55:39.071Z,100.00
2023-02-18T04:58:05.963Z,100.00
2023-02-18T05:00:33.410Z,100.00
2023-02-18T05:03:00.227Z,100.00
2023-02-18T05:05:27.491Z,100.00
2023-02-18T05:07:54.377Z,100.00
2023-02-18T05:10:21.560Z,100.00
2023-02-18T05:12:48.418Z,100.00
2023-02-18T05:15:18.749Z,100.00
2023-02-18T05:17:47.914Z,100.00
2023-02-18T05:20:15.396Z,100.00
2023-02-18T05:22:43.125Z,100.00
2023-02-18T05:25:10.341Z,100.00
2023-02-18T05:27:37.406Z,100.00
2023-02-18T05:30:04.881Z,100.00
2023-02-18T05:32:34.413Z,100.00
2023-02-18T05:35:01.564Z,100.00
2023-02-18T05:37:28.542Z,100.00
2023-02-18T05:39:55.739Z,100.00
2023-02-18T05:42:25.673Z,100.00
2023-02-18T05:44:52.874Z,100.00
2023-02-18T05:47:22.180Z,100.00
2023-02-18T05:49:50.968Z,100.00
2023-02-18T05:52:18.073Z,100.00
2023-02-18T05:54:45.690Z,100.00
2023-02-18T05:57:13.687Z,100.00
2023-02-18T05:59:40.948Z,100.00
2023-02-18T06:02:07.907Z,100.00
2023-02-18T06:04:35.416Z,100.00
2023-02-18T06:07:04.827Z,100.00
2023-02-18T06:09:34.831Z,100.00
2023-02-18T06:12:02.021Z,100.00
2023-02-18T06:14:29.214Z,100.00
2023-02-18T06:16:58.446Z,100.00
2023-02-18T06:19:25.642Z,100.00
2023-02-18T06:21:52.593Z,100.00
2023-02-18T06:24:19.825Z,100.00
2023-02-18T06:26:47.424Z,100.00
2023-02-18T06:29:14.586Z,100.00
2023-02-18T06:31:43.645Z,100.00
2023-02-18T06:34:13.210Z,100.00
2023-02-18T06:36:40.477Z,100.00
2023-02-18T06:39:07.766Z,100.00
2023-02-18T06:41:37.077Z,100.00
2023-02-18T06:44:04.437Z,100.00
2023-02-18T06:46:31.559Z,100.00
2023-02-18T06:49:01.514Z,100.00
2023-02-18T06:51:28.443Z,100.00
2023-02-18T06:53:55.648Z,100.00
2023-02-18T06:56:22.535Z,100.00
2023-02-18T06:58:52.274Z,100.00
2023-02-18T07:01:19.166Z,100.00
2023-02-18T07:03:48.417Z,100.00
2023-02-18T07:06:19.247Z,100.00
2023-02-18T07:08:49.501Z,100.00
2023-02-18T07:11:16.656Z,100.00
2023-02-18T07:13:46.308Z,100.00
2023-02-18T07:16:13.492Z,100.00
2023-02-18T07:18:40.860Z,100.00
2023-02-18T07:21:07.744Z,100.00
2023-02-18T07:23:35.222Z,100.00
2023-02-18T07:26:07.077Z,100.00
2023-02-18T07:28:36.733Z,100.00
2023-02-18T07:31:04.430Z,100.00
2023-02-18T07:33:31.826Z,100.00
2023-02-18T07:35:59.497Z,100.00
2023-02-18T07:38:27.417Z,100.00
2023-02-18T07:40:54.780Z,100.00
2023-02-18T07:43:24.698Z,100.00
2023-02-18T07:45:53.799Z,100.00
2023-02-18T07:48:21.159Z,100.00
2023-02-18T07:50:48.160Z,100.00
2023-02-18T07:53:16.442Z,100.00
2023-02-18T07:55:52.139Z,100.00
2023-02-18T07:58:20.811Z,100.00
2023-02-18T08:00:49.581Z,100.00
2023-02-18T08:03:21.554Z,100.00
2023-02-18T08:05:49.833Z,100.00
2023-02-18T08:08:21.718Z,100.00
2023-02-18T08:10:49.321Z,100.00
2023-02-18T08:13:16.607Z,100.00
2023-02-18T08:15:43.659Z,100.00
2023-02-18T08:18:22.388Z,100.00
2023-02-18T08:20:50.062Z,100.00
2023-02-18T08:23:19.228Z,100.00
2023-02-18T08:25:50.499Z,100.00
2023-02-18T08:28:18.257Z,100.00
2023-02-18T08:30:49.165Z,100.00
2023-02-18T08:33:16.854Z,100.00
2023-02-18T08:35:44.092Z,100.00
2023-02-18T08:38:11.484Z,100.00
2023-02-18T08:40:38.375Z,100.00
2023-02-18T08:43:05.723Z,100.00
2023-02-18T08:45:35.086Z,100.00
2023-02-18T08:48:17.902Z,100.00
2023-02-18T08:50:47.990Z,100.00
2023-02-18T08:53:15.694Z,100.00
2023-02-18T08:55:42.624Z,100.00
2023-02-18T08:58:10.633Z,100.00
2023-02-18T09:00:38.204Z,100.00
2023-02-18T09:03:05.653Z,100.00
2023-02-18T09:05:32.570Z,100.00
2023-02-18T09:07:59.817Z,100.00
2023-02-18T09:10:26.725Z,100.00
2023-02-18T09:12:56.419Z,100.00
2023-02-18T09:15:23.356Z,100.00
2023-02-18T09:17:50.560Z,100.00
2023-02-18T09:20:20.003Z,99.61
2023-02-18T09:22:49.585Z,99.58
2023-02-18T09:25:16.542Z,100.00
2023-02-18T09:27:43.731Z,96.19
2023-02-18T09:30:11.178Z,94.50
2023-02-18T09:32:38.519Z,89.43
2023-02-18T09:35:05.721Z,91.12
2023-02-18T09:37:33.198Z,88.04
2023-02-18T09:40:00.204Z,87.27
2023-02-18T09:42:32.461Z,87.19
2023-02-18T09:45:02.558Z,88.52
2023-02-18T09:47:37.413Z,87.22
2023-02-18T09:50:24.555Z,87.58
2023-02-18T09:52:54.689Z,87.63
2023-02-18T09:55:21.629Z,89.24
2023-02-18T09:57:51.237Z,89.80
2023-02-18T10:00:21.241Z,90.07
2023-02-18T10:02:56.981Z,91.50
2023-02-18T10:05:28.320Z,95.04
2023-02-18T10:07:57.417Z,96.59
2023-02-18T10:10:33.289Z,97.37
2023-02-18T10:13:00.727Z,99.69
2023-02-18T10:15:29.122Z,100.00
2023-02-18T10:17:57.281Z,100.00
2023-02-18T10:20:26.789Z,100.00
2023-02-18T10:22:55.775Z,100.00
2023-02-18T10:25:23.621Z,100.00
2023-02-18T10:27:54.038Z,100.00
2023-02-18T10:30:42.175Z,100.00
2023-02-18T10:33:28.455Z,100.00
2023-02-18T10:36:07.762Z,100.00
2023-02-18T10:38:35.034Z,100.00
2023-02-18T10:41:10.557Z,100.00
2023-02-18T10:43:52.826Z,99.18
2023-02-18T10:46:19.833Z,98.65
2023-02-18T10:48:53.164Z,98.73
2023-02-18T10:51:31.093Z,97.27
2023-02-18T10:54:00.867Z,96.11
2023-02-18T10:56:41.404Z,96.82
2023-02-18T10:59:19.803Z,94.50
2023-02-18T11:01:54.664Z,92.42
2023-02-18T11:04:27.362Z,90.47
2023-02-18T11:06:57.377Z,86.35
2023-02-18T11:09:46.962Z,85.57
2023-02-18T11:12:32.643Z,86.44
2023-02-18T11:15:21.698Z,84.91
2023-02-18T11:17:51.925Z,80.90
2023-02-18T11:20:19.183Z,78.45
2023-02-18T11:22:46.108Z,76.50
2023-02-18T11:25:24.270Z,76.09
2023-02-18T11:27:52.452Z,76.81
2023-02-18T11:30:22.207Z,78.40
2023-02-18T11:33:01.127Z,76.10
2023-02-18T11:35:29.970Z,74.88
2023-02-18T11:38:02.421Z,74.31
2023-02-18T11:40:33.751Z,73.08
2023-02-18T11:43:05.810Z,73.49
2023-02-18T11:45:36.440Z,74.24
2023-02-18T11:48:08.693Z,74.29
2023-02-18T11:50:37.766Z,73.20
2023-02-18T11:53:24.663Z,71.83
2023-02-18T11:55:56.683Z,72.20
2023-02-18T11:58:23.651Z,70.53
2023-02-18T12:00:55.205Z,70.43
2023-02-18T12:03:47.555Z,70.14
2023-02-18T12:06:18.404Z,70.39
2023-02-18T12:08:57.121Z,70.68
2023-02-18T12:11:31.054Z,69.53
2023-02-18T12:13:58.727Z,69.83
2023-02-18T12:16:31.842Z,69.69
2023-02-18T12:19:11.170Z,69.00
2023-02-18T12:21:38.391Z,67.37
2023-02-18T12:24:23.800Z,66.48
2023-02-18T12:26:54.777Z,64.61
2023-02-18T12:29:37.760Z,63.54
2023-02-18T12:32:09.720Z,64.78
2023-02-18T12:34:39.077Z,65.70
2023-02-18T12:37:09.473Z,64.29
2023-02-18T12:39:54.755Z,64.60
2023-02-18T12:42:28.326Z,63.43
2023-02-18T12:45:03.430Z,62.89
2023-02-18T12:47:51.506Z,62.82
2023-02-18T12:50:37.386Z,63.06
2023-02-18T12:53:05.108Z,64.05
2023-02-18T12:55:38.350Z,63.29
2023-02-18T12:58:27.064Z,62.76
2023-02-18T13:01:05.266Z,62.90
2023-02-18T13:03:42.726Z,62.27
2023-02-18T13:06:12.800Z,61.77
2023-02-18T13:08:58.776Z,61.67
2023-02-18T13:11:38.797Z,61.08
2023-02-18T13:14:21.465Z,60.71
2023-02-18T13:16:51.414Z,59.95
2023-02-18T13:19:27.042Z,60.88
2023-02-18T13:21:58.816Z,59.36
2023-02-18T13:24:40.404Z,59.75
2023-02-18T13:27:22.713Z,59.21
2023-02-18T13:30:04.231Z,58.33
2023-02-18T13:32:41.180Z,58.65
2023-02-18T13:35:14.170Z,56.60
2023-02-18T13:37:50.176Z,56.02
2023-02-18T13:40:19.788Z,55.12
2023-02-18T13:42:46.894Z,54.15
2023-02-18T13:45:24.544Z,54.66
2023-02-18T13:47:54.251Z,54.41
2023-02-18T13:50:30.626Z,54.88
2023-02-18T13:53:00.370Z,53.90
2023-02-18T13:55:35.628Z,53.66
2023-02-18T13:58:02.683Z,53.17
2023-02-18T14:00:40.661Z,53.40
2023-02-18T14:03:31.496Z,54.08
2023-02-18T14:05:59.097Z,54.11
2023-02-18T14:08:31.539Z,54.10
2023-02-18T14:11:22.110Z,54.18
2023-02-18T14:14:14.453Z,53.41
2023-02-18T14:17:00.931Z,53.96
2023-02-18T14:19:29.419Z,54.05
2023-02-18T14:22:16.585Z,54.25
2023-02-18T14:24:47.050Z,53.36
2023-02-18T14:27:15.810Z,53.09
2023-02-18T14:29:43.292Z,53.95
2023-02-18T14:32:12.498Z,53.89
2023-02-18T14:34:50.380Z,53.30
2023-02-18T14:37:20.872Z,54.10
2023-02-18T14:39:51.263Z,53.82
2023-02-18T14:42:39.749Z,53.23
2023-02-18T14:45:25.664Z,53.26
2023-02-18T14:47:56.431Z,53.16
2023-02-18T14:50:24.442Z,52.60
2023-02-18T14:52:59.733Z,51.77
2023-02-18T14:55:27.134Z,51.83
2023-02-18T14:58:06.558Z,51.96
2023-02-18T15:00:35.721Z,52.09
2023-02-18T15:03:03.655Z,52.68
2023-02-18T15:05:32.604Z,52.92
2023-02-18T15:08:03.294Z,52.88
2023-02-18T15:10:44.618Z,53.24
2023-02-18T15:13:20.638Z,53.87
2023-02-18T15:15:51.359Z,54.22
2023-02-18T15:18:26.143Z,54.64
2023-02-18T15:20:53.641Z,55.45
2023-02-18T15:23:28.410Z,55.02
2023-02-18T15:25:56.047Z,55.04
2023-02-18T15:28:34.424Z,55.19
2023-02-18T15:31:03.023Z,55.46
2023-02-18T15:33:30.562Z,56.04
2023-02-18T15:36:03.236Z,57.34
2023-02-18T15:38:31.398Z,56.86
2023-02-18T15:41:02.267Z,56.92
2023-02-18T15:43:33.148Z,56.52
2023-02-18T15:46:00.294Z,57.07
2023-02-18T15:48:45.144Z,56.40
2023-02-18T15:51:17.668Z,55.91
2023-02-18T15:53:47.916Z,55.64
2023-02-18T15:56:33.450Z,56.08
2023-02-18T15:59:24.566Z,56.71
2023-02-18T16:01:53.729Z,56.57
2023-02-18T16:04:23.150Z,57.27
2023-02-18T16:06:51.972Z,57.90
2023-02-18T16:09:19.522Z,58.00
2023-02-18T16:12:02.444Z,58.89
2023-02-18T16:14:43.558Z,59.64
2023-02-18T16:17:14.745Z,60.85
2023-02-18T16:20:03.972Z,60.75
2023-02-18T16:22:32.551Z,61.34
2023-02-18T16:25:04.766Z,61.52
2023-02-18T16:27:33.304Z,62.42
2023-02-18T16:30:03.051Z,62.75
2023-02-18T16:32:30.285Z,64.13
2023-02-18T16:34:57.705Z,64.49
2023-02-18T16:37:40.331Z,64.08
2023-02-18T16:40:27.871Z,64.93
2023-02-18T16:42:55.786Z,65.15
2023-02-18T16:45:27.078Z,65.07
2023-02-18T16:47:58.310Z,63.83
2023-02-18T16:50:30.647Z,63.88
2023-02-18T16:52:58.429Z,63.77
2023-02-18T16:55:28.822Z,63.71
2023-02-18T16:57:58.963Z,63.49
2023-02-18T17:00:26.843Z,62.63
2023-02-18T17:02:58.592Z,62.69
2023-02-18T17:05:27.743Z,62.33
2023-02-18T17:07:55.970Z,61.88
2023-02-18T17:10:23.567Z,61.21
2023-02-18T17:12:50.517Z,60.55
2023-02-18T17:15:30.037Z,61.02
2023-02-18T17:18:00.224Z,60.30
2023-02-18T17:20:30.233Z,59.77
2023-02-18T17:23:00.200Z,60.23
2023-02-18T17:25:32.965Z,59.37
2023-02-18T17:28:00.434Z,58.31
2023-02-18T17:30:29.538Z,58.07
2023-02-18T17:33:03.026Z,57.90
2023-02-18T17:35:31.351Z,57.56
2023-02-18T17:37:59.152Z,57.33
2023-02-18T17:40:28.537Z,58.80
2023-02-18T17:42:56.533Z,58.81
2023-02-18T17:45:32.329Z,58.98
2023-02-18T17:48:04.821Z,58.85
2023-02-18T17:50:33.085Z,58.57
2023-02-18T17:53:03.226Z,58.39
2023-02-18T17:55:34.564Z,58.49
2023-02-18T17:58:02.542Z,58.61
2023-02-18T18:00:35.931Z,59.15
2023-02-18T18:03:07.024Z,59.30
2023-02-18T18:05:40.271Z,59.51
2023-02-18T18:08:08.753Z,59.64
2023-02-18T18:10:38.378Z,59.93
2023-02-18T18:13:23.039Z,60.26
2023-02-18T18:15:52.373Z,60.40
2023-02-18T18:18:21.543Z,60.29
2023-02-18T18:20:53.452Z,60.34
2023-02-18T18:23:22.188Z,60.83
2023-02-18T18:25:54.948Z,61.55
2023-02-18T18:28:27.272Z,61.25
2023-02-18T18:30:56.333Z,61.86
2023-02-18T18:33:30.013Z,62.15
2023-02-18T18:35:58.958Z,62.70
2023-02-18T18:38:27.738Z,63.33
2023-02-18T18:40:56.037Z,63.07
2023-02-18T18:43:30.778Z,63.79
2023-02-18T18:46:01.057Z,63.43
2023-02-18T18:48:29.082Z,63.97
2023-02-18T18:50:58.711Z,64.29
2023-02-18T18:53:30.766Z,64.54
2023-02-18T18:56:00.633Z,64.68
2023-02-18T18:58:28.349Z,64.67
2023-02-18T19:00:59.122Z,64.72
2023-02-18T19:03:29.196Z,65.37
2023-02-18T19:05:57.145Z,64.72
2023-02-18T19:08:25.254Z,64.80
2023-02-18T19:10:54.961Z,64.67
2023-02-18T19:13:27.105Z,65.52
2023-02-18T19:16:14.386Z,66.31
2023-02-18T19:18:42.415Z,66.01
2023-02-18T19:21:10.852Z,65.89
2023-02-18T19:23:38.865Z,65.51
2023-02-18T19:26:08.189Z,65.68
2023-02-18T19:28:36.218Z,65.78
2023-02-18T19:31:09.473Z,65.50
2023-02-18T19:33:37.472Z,65.49
2023-02-18T19:36:14.929Z,65.00
2023-02-18T19:38:43.189Z,65.28
2023-02-18T19:41:15.665Z,65.75
2023-02-18T19:43:46.760Z,65.50
2023-02-18T19:46:16.462Z,65.71
2023-02-18T19:48:53.927Z,66.07
2023-02-18T19:51:23.683Z,66.22
2023-02-18T19:53:51.514Z,66.74
2023-02-18T19:56:28.620Z,67.22
2023-02-18T19:58:57.243Z,67.40
2023-02-18T20:01:25.469Z,68.00
2023-02-18T20:03:56.023Z,68.53
2023-02-18T20:06:26.417Z,68.82
2023-02-18T20:08:55.275Z,70.02
2023-02-18T20:11:25.961Z,69.54
2023-02-18T20:13:55.276Z,70.40
2023-02-18T20:16:24.483Z,70.16
2023-02-18T20:18:55.822Z,70.26
2023-02-18T20:21:29.731Z,70.41
2023-02-18T20:23:59.375Z,71.33
2023-02-18T20:26:27.605Z,71.42
2023-02-18T20:28:57.297Z,72.42
2023-02-18T20:31:27.672Z,72.65
2023-02-18T20:34:01.565Z,72.95
2023-02-18T20:36:29.661Z,73.04
2023-02-18T20:39:07.636Z,73.61
2023-02-18T20:41:48.513Z,73.97
2023-02-18T20:44:20.132Z,74.61
2023-02-18T20:46:51.459Z,75.12
2023-02-18T20:49:20.495Z,75.22
2023-02-18T20:51:51.235Z,75.80
2023-02-18T20:54:23.346Z,75.93
2023-02-18T20:56:51.712Z,75.67
2023-02-18T20:59:20.936Z,76.53
2023-02-18T21:01:49.518Z,75.91
2023-02-18T21:04:18.559Z,75.84
2023-02-18T21:06:48.601Z,77.19
2023-02-18T21:09:16.510Z,77.93
2023-02-18T21:11:47.423Z,79.05
2023-02-18T21:14:15.236Z,80.12
2023-02-18T21:16:44.036Z,79.82
2023-02-18T21:19:16.526Z,79.53
2023-02-18T21:21:47.480Z,80.62
2023-02-18T21:24:15.115Z,81.36
2023-02-18T21:26:43.526Z,82.47
2023-02-18T21:29:11.380Z,84.08
2023-02-18T21:31:40.661Z,84.64
2023-02-18T21:34:13.194Z,86.07
2023-02-18T21:36:41.302Z,86.62
2023-02-18T21:39:09.189Z,87.80
2023-02-18T21:41:40.116Z,87.93
2023-02-18T21:44:11.491Z,88.54
2023-02-18T21:46:40.037Z,90.53
2023-02-18T21:49:10.117Z,91.62
2023-02-18T21:51:59.236Z,92.94
2023-02-18T21:54:27.847Z,93.58
2023-02-18T21:57:00.690Z,93.86
2023-02-18T21:59:29.699Z,94.80
2023-02-18T22:02:00.418Z,96.18
2023-02-18T22:04:34.006Z,96.36
2023-02-18T22:07:05.730Z,98.26
2023-02-18T22:09:33.026Z,99.97
2023-02-18T22:12:00.439Z,100.00
2023-02-18T22:14:27.511Z,100.00
2023-02-18T22:16:54.889Z,100.00
2023-02-18T22:19:21.839Z,100.00
2023-02-18T22:21:49.230Z,100.00
2023-02-18T22:24:17.502Z,100.00
2023-02-18T22:26:46.583Z,100.00
2023-02-18T22:29:14.276Z,100.00
2023-02-18T22:31:41.993Z,100.00
2023-02-18T22:34:09.696Z,100.00
2023-02-18T22:36:37.289Z,100.00
2023-02-18T22:39:04.717Z,100.00
2023-02-18T22:41:33.074Z,100.00
2023-02-18T22:44:04.849Z,100.00
2023-02-18T22:46:33.389Z,100.00
2023-02-18T22:49:01.012Z,100.00
2023-02-18T22:51:30.621Z,100.00
2023-02-18T22:53:58.196Z,100.00
2023-02-18T22:56:26.358Z,100.00
2023-02-18T22:58:53.988Z,100.00
2023-02-18T23:01:22.923Z,100.00
2023-02-18T23:03:50.404Z,100.00
2023-02-18T23:06:18.157Z,100.00
2023-02-18T23:08:45.336Z,100.00
2023-02-18T23:11:13.848Z,100.00
2023-02-18T23:13:41.132Z,100.00
2023-02-18T23:16:09.880Z,100.00
2023-02-18T23:18:37.361Z,100.00
2023-02-18T23:21:21.342Z,100.00
2023-02-18T23:23:50.609Z,100.00
2023-02-18T23:26:18.649Z,100.00
2023-02-18T23:28:48.631Z,100.00
2023-02-18T23:31:20.050Z,100.00
2023-02-18T23:33:49.562Z,100.00
2023-02-18T23:36:18.733Z,100.00
2023-02-18T23:38:52.506Z,100.00
2023-02-18T23:41:20.292Z,100.00
2023-02-18T23:43:47.572Z,100.00
2023-02-18T23:46:15.876Z,100.00
2023-02-18T23:48:42.894Z,100.00
2023-02-18T23:51:12.774Z,100.00
2023-02-18T23:53:39.988Z,100.00
2023-02-18T23:56:07.211Z,100.00
2023-02-18T23:58:34.689Z,100.00
